createdAt,value
2022-08-26T00:01:52.887Z,0.70
2022-08-26T00:04:21.799Z,0.88
2022-08-26T00:06:49.198Z,0.77
2022-08-26T00:09:16.887Z,0.88
2022-08-26T00:11:45.464Z,0.77
2022-08-26T00:14:15.929Z,0.83
2022-08-26T00:16:48.199Z,0.80
2022-08-26T00:19:17.125Z,1.20
2022-08-26T00:21:44.656Z,1.30
2022-08-26T00:24:13.461Z,1.42
2022-08-26T00:26:41.505Z,1.52
2022-08-26T00:29:09.375Z,2.00
2022-08-26T00:31:38.312Z,2.40
2022-08-26T00:34:07.290Z,2.38
2022-08-26T00:36:37.815Z,1.83
2022-08-26T00:39:07.583Z,1.98
2022-08-26T00:41:35.266Z,2.03
2022-08-26T00:44:03.137Z,1.75
2022-08-26T00:46:34.965Z,2.05
2022-08-26T00:49:11.948Z,1.70
2022-08-26T00:51:45.869Z,1.48
2022-08-26T00:54:14.947Z,1.67
2022-08-26T00:56:47.111Z,1.48
2022-08-26T00:59:18.092Z,1.55
2022-08-26T01:04:19.499Z,1.65
2022-08-26T01:06:50.411Z,1.17
2022-08-26T01:09:19.516Z,1.55
2022-08-26T01:11:49.405Z,1.10
2022-08-26T01:14:20.166Z,1.42
2022-08-26T01:16:48.339Z,1.27
2022-08-26T01:19:23.361Z,1.20
2022-08-26T01:21:58.188Z,1.25
2022-08-26T01:24:29.598Z,1.10
2022-08-26T01:27:00.700Z,1.30
2022-08-26T01:29:29.711Z,1.40
2022-08-26T01:31:58.101Z,1.70
2022-08-26T01:34:30.506Z,1.48
2022-08-26T01:37:03.401Z,1.58
2022-08-26T01:39:35.934Z,1.27
2022-08-26T01:42:06.043Z,1.35
2022-08-26T01:44:45.232Z,1.60
2022-08-26T01:47:14.748Z,1.70
2022-08-26T01:52:16.736Z,1.60
2022-08-26T01:54:46.317Z,1.33
2022-08-26T01:57:19.606Z,1.40
2022-08-26T01:59:48.105Z,1.48
2022-08-26T02:02:15.594Z,1.52
2022-08-26T02:04:48.834Z,1.30
2022-08-26T02:07:19.222Z,1.65
2022-08-26T02:09:50.194Z,1.52
2022-08-26T02:12:19.914Z,1.20
2022-08-26T02:14:53.528Z,1.58
2022-08-26T02:17:25.719Z,0.95
2022-08-26T02:19:53.474Z,1.20
2022-08-26T02:22:22.833Z,1.23
2022-08-26T02:24:56.581Z,1.08
2022-08-26T02:27:25.848Z,1.10
2022-08-26T02:29:59.010Z,0.90
2022-08-26T02:32:27.132Z,1.00
2022-08-26T02:34:54.545Z,1.05
2022-08-26T02:37:23.069Z,1.08
2022-08-26T02:39:50.560Z,1.38
2022-08-26T02:42:20.855Z,1.20
2022-08-26T02:44:48.238Z,1.50
2022-08-26T02:47:16.285Z,0.90
2022-08-26T02:49:44.563Z,1.08
2022-08-26T02:52:15.242Z,0.90
2022-08-26T02:54:42.544Z,1.08
2022-08-26T02:57:10.063Z,1.15
2022-08-26T02:59:40.123Z,1.35
2022-08-26T03:02:07.901Z,1.52
2022-08-26T03:04:35.203Z,1.73
2022-08-26T03:07:02.794Z,1.30
2022-08-26T03:09:30.624Z,1.50
2022-08-26T03:11:58.389Z,1.40
2022-08-26T03:14:26.067Z,1.80
2022-08-26T03:16:55.627Z,1.40
2022-08-26T03:19:24.397Z,1.45
2022-08-26T03:21:53.012Z,1.25
2022-08-26T03:24:25.599Z,1.73
2022-08-26T03:26:53.248Z,1.42
2022-08-26T03:29:39.414Z,1.38
2022-08-26T03:32:09.158Z,1.20
2022-08-26T03:34:38.016Z,1.30
2022-08-26T03:37:06.208Z,1.45
2022-08-26T03:39:33.573Z,1.40
2022-08-26T03:42:01.047Z,1.58
2022-08-26T03:44:28.490Z,1.60
2022-08-26T03:46:55.958Z,1.60
2022-08-26T03:49:24.935Z,1.40
2022-08-26T03:51:56.316Z,1.90
2022-08-26T03:54:24.263Z,1.20
2022-08-26T03:56:51.592Z,1.40
2022-08-26T03:59:19.081Z,1.00
2022-08-26T04:01:46.582Z,1.15
2022-08-26T04:04:15.783Z,1.20
2022-08-26T04:06:46.077Z,1.23
2022-08-26T04:09:15.837Z,1.45
2022-08-26T04:11:45.646Z,1.30
2022-08-26T04:14:20.409Z,1.45
2022-08-26T04:16:48.506Z,1.33
2022-08-26T04:19:17.276Z,1.48
2022-08-26T04:21:47.434Z,1.25
2022-08-26T04:24:17.620Z,1.17
2022-08-26T04:26:45.135Z,1.50
2022-08-26T04:29:14.844Z,1.35
2022-08-26T04:31:42.720Z,1.42
2022-08-26T04:34:11.221Z,1.60
2022-08-26T04:36:43.339Z,1.60
2022-08-26T04:39:16.718Z,1.83
2022-08-26T04:41:46.731Z,1.63
2022-08-26T04:44:14.693Z,1.88
2022-08-26T04:46:43.968Z,4.47
2022-08-26T04:49:12.741Z,2.30
2022-08-26T04:51:40.950Z,1.83
2022-08-26T04:54:08.841Z,1.50
2022-08-26T04:56:40.612Z,4.13
2022-08-26T04:59:16.520Z,2.65
2022-08-26T05:01:45.263Z,1.67
2022-08-26T05:04:12.882Z,4.35
2022-08-26T05:06:43.831Z,4.75
2022-08-26T05:09:13.157Z,2.05
2022-08-26T05:11:45.733Z,1.80
2022-08-26T05:14:16.674Z,1.67
2022-08-26T05:16:44.064Z,1.85
2022-08-26T05:19:17.219Z,2.00
2022-08-26T05:21:47.862Z,2.05
2022-08-26T05:24:16.380Z,1.77
2022-08-26T05:26:45.228Z,2.05
2022-08-26T05:29:13.007Z,2.15
2022-08-26T05:31:40.461Z,1.50
2022-08-26T05:34:08.441Z,1.77
2022-08-26T05:36:37.014Z,1.92
2022-08-26T05:39:07.274Z,1.48
2022-08-26T05:41:38.415Z,1.85
2022-08-26T05:44:10.030Z,1.52
2022-08-26T05:46:40.175Z,1.92
2022-08-26T05:49:12.556Z,1.40
2022-08-26T05:51:41.526Z,2.10
2022-08-26T05:54:10.713Z,1.95
2022-08-26T05:56:40.469Z,1.55
2022-08-26T05:59:14.899Z,1.60
2022-08-26T06:01:43.880Z,1.67
2022-08-26T06:04:12.284Z,1.50
2022-08-26T06:06:42.639Z,1.75
2022-08-26T06:09:11.197Z,1.65
2022-08-26T06:11:39.827Z,1.90
2022-08-26T06:14:08.827Z,1.17
2022-08-26T06:16:41.221Z,1.17
2022-08-26T06:19:11.665Z,1.50
2022-08-26T06:21:41.320Z,1.83
2022-08-26T06:24:29.539Z,1.58
2022-08-26T06:27:01.695Z,1.13
2022-08-26T06:29:30.926Z,1.50
2022-08-26T06:32:00.884Z,1.20
2022-08-26T06:34:30.367Z,2.03
2022-08-26T06:37:01.212Z,1.45
2022-08-26T06:39:30.920Z,1.05
2022-08-26T06:41:59.167Z,1.73
2022-08-26T06:44:27.760Z,1.38
2022-08-26T06:46:56.510Z,1.55
2022-08-26T06:49:27.623Z,1.48
2022-08-26T06:51:58.595Z,3.67
2022-08-26T06:54:26.574Z,1.40
2022-08-26T06:56:53.997Z,1.40
2022-08-26T06:59:22.563Z,1.35
2022-08-26T07:01:50.215Z,1.40
2022-08-26T07:04:27.819Z,2.10
2022-08-26T07:06:57.077Z,1.20
2022-08-26T07:09:27.211Z,1.40
2022-08-26T07:11:56.456Z,1.30
2022-08-26T07:14:26.161Z,1.67
2022-08-26T07:16:54.092Z,1.20
2022-08-26T07:19:30.354Z,1.13
2022-08-26T07:22:03.234Z,1.40
2022-08-26T07:24:31.326Z,1.35
2022-08-26T07:27:01.276Z,1.20
2022-08-26T07:29:29.567Z,1.13
2022-08-26T07:31:57.221Z,1.40
2022-08-26T07:34:25.508Z,1.55
2022-08-26T07:36:54.005Z,1.30
2022-08-26T07:39:24.868Z,1.40
2022-08-26T07:41:52.878Z,1.35
2022-08-26T07:44:21.145Z,1.33
2022-08-26T07:46:52.449Z,1.45
2022-08-26T07:49:22.169Z,1.27
2022-08-26T07:51:50.468Z,0.90
2022-08-26T07:54:17.873Z,1.42
2022-08-26T07:56:48.356Z,2.65
2022-08-26T07:59:16.888Z,1.50
2022-08-26T08:01:45.484Z,1.20
2022-08-26T08:04:13.854Z,1.10
2022-08-26T08:06:43.890Z,1.45
2022-08-26T08:09:12.915Z,1.20
2022-08-26T08:11:42.545Z,1.38
2022-08-26T08:14:13.263Z,1.33
2022-08-26T08:16:45.823Z,1.40
2022-08-26T08:19:14.808Z,1.42
2022-08-26T08:21:42.755Z,2.38
2022-08-26T08:24:11.305Z,1.48
2022-08-26T08:26:39.347Z,1.60
2022-08-26T08:29:10.092Z,1.13
2022-08-26T08:31:57.025Z,1.08
2022-08-26T08:34:28.465Z,1.70
2022-08-26T08:36:57.427Z,1.35
2022-08-26T08:39:26.460Z,1.40
2022-08-26T08:42:16.444Z,1.25
2022-08-26T08:44:51.894Z,1.73
2022-08-26T08:47:33.972Z,1.30
2022-08-26T08:50:11.648Z,1.20
2022-08-26T08:52:44.886Z,1.83
2022-08-26T08:55:18.009Z,1.58
2022-08-26T08:58:02.617Z,1.38
2022-08-26T09:00:39.786Z,1.60
2022-08-26T09:03:23.764Z,1.48
2022-08-26T09:05:52.667Z,1.60
2022-08-26T09:08:28.546Z,1.90
2022-08-26T09:10:59.657Z,1.73
2022-08-26T09:13:29.220Z,1.90
2022-08-26T09:16:07.580Z,1.77
2022-08-26T09:19:10.952Z,1.70
2022-08-26T09:21:40.664Z,1.55
2022-08-26T09:24:08.658Z,2.17
2022-08-26T09:26:48.168Z,2.25
2022-08-26T09:29:29.385Z,1.42
2022-08-26T09:32:16.829Z,1.90
2022-08-26T09:34:56.393Z,1.38
2022-08-26T09:40:20.573Z,1.50
2022-08-26T09:43:22.586Z,1.55
2022-08-26T09:45:59.179Z,1.48
2022-08-26T09:48:31.869Z,1.30
2022-08-26T09:51:07.053Z,1.42
2022-08-26T09:53:49.906Z,1.15
2022-08-26T09:56:27.542Z,1.27
2022-08-26T09:58:57.353Z,1.42
2022-08-26T10:04:06.576Z,1.83
2022-08-26T10:06:38.349Z,1.60
2022-08-26T10:09:09.079Z,1.27
2022-08-26T10:11:42.878Z,1.27
2022-08-26T10:14:15.925Z,1.58
2022-08-26T10:19:56.998Z,1.15
2022-08-26T10:22:39.274Z,1.70
2022-08-26T10:25:12.202Z,1.30
2022-08-26T10:27:51.218Z,1.55
2022-08-26T10:30:31.630Z,1.77
2022-08-26T10:33:15.623Z,1.60
2022-08-26T10:35:51.904Z,1.85
2022-08-26T10:38:29.453Z,1.30
2022-08-26T10:41:10.371Z,1.48
2022-08-26T10:43:45.390Z,1.80
2022-08-26T10:46:17.242Z,1.63
2022-08-26T10:48:49.608Z,1.83
2022-08-26T10:51:42.308Z,1.65
2022-08-26T10:54:55.913Z,1.80
2022-08-26T10:57:34.941Z,1.83
2022-08-26T11:00:31.334Z,1.70
2022-08-26T11:03:21.973Z,1.60
2022-08-26T11:06:23.877Z,1.80
2022-08-26T11:08:53.945Z,1.80
2022-08-26T11:11:51.125Z,1.52
2022-08-26T11:14:46.080Z,1.77
2022-08-26T11:17:58.318Z,1.83
2022-08-26T11:20:41.904Z,1.80
2022-08-26T11:23:38.851Z,1.70
2022-08-26T11:26:18.871Z,1.80
2022-08-26T11:29:12.152Z,1.65
2022-08-26T11:31:55.902Z,1.55
2022-08-26T11:34:52.018Z,2.10
2022-08-26T11:44:40.578Z,1.98
2022-08-26T11:57:17.340Z,2.63
2022-08-26T12:09:24.981Z,2.03
2022-08-26T12:11:58.047Z,2.30
2022-08-26T12:14:27.754Z,1.73
2022-08-26T12:16:55.375Z,2.17
2022-08-26T12:19:32.692Z,1.70
2022-08-26T12:22:05.004Z,1.70
2022-08-26T12:24:34.176Z,2.10
2022-08-26T12:27:56.208Z,1.40
2022-08-26T12:30:26.469Z,1.90
2022-08-26T12:33:17.989Z,1.80
2022-08-26T12:35:56.555Z,1.67
2022-08-26T12:38:25.169Z,1.63
2022-08-26T12:44:58.929Z,1.90
2022-08-26T12:47:41.780Z,1.90
2022-08-26T12:50:19.309Z,1.70
2022-08-26T12:52:56.782Z,1.88
2022-08-26T12:55:35.681Z,1.45
2022-08-26T12:58:20.808Z,1.77
2022-08-26T13:00:51.161Z,1.50
2022-08-26T13:03:45.034Z,1.77
2022-08-26T13:06:30.099Z,1.77
2022-08-26T13:09:04.162Z,1.88
2022-08-26T13:15:40.024Z,1.58
2022-08-26T13:18:12.237Z,1.65
2022-08-26T13:20:45.855Z,1.20
2022-08-26T13:23:14.470Z,1.70
2022-08-26T13:25:44.165Z,1.70
2022-08-26T13:30:39.610Z,1.45
2022-08-26T13:33:09.997Z,1.73
2022-08-26T13:35:41.135Z,1.75
2022-08-26T13:38:18.595Z,2.28
2022-08-26T13:41:03.876Z,2.20
2022-08-26T13:43:32.384Z,3.00
2022-08-26T13:46:00.921Z,2.78
2022-08-26T13:48:28.522Z,2.53
2022-08-26T13:50:57.777Z,7.72
2022-08-26T13:55:53.478Z,2.80
2022-08-26T13:58:21.281Z,2.63
2022-08-26T14:00:54.214Z,2.80
2022-08-26T14:03:21.978Z,2.75
2022-08-26T14:05:50.403Z,2.90
2022-08-26T14:08:40.494Z,2.65
2022-08-26T14:12:57.495Z,3.50
2022-08-26T14:15:09.227Z,3.35
2022-08-26T14:17:36.827Z,2.67
2022-08-26T14:20:09.341Z,2.30
2022-08-26T14:26:32.428Z,2.50
2022-08-26T14:36:33.423Z,1.90
2022-08-26T14:39:04.180Z,2.50
2022-08-26T14:41:34.988Z,2.30
2022-08-26T14:44:06.487Z,2.28
2022-08-26T14:46:42.039Z,2.15
2022-08-26T14:49:10.777Z,2.33
2022-08-26T14:51:38.437Z,2.15
2022-08-26T14:54:17.295Z,2.42
2022-08-26T14:59:19.221Z,2.40
2022-08-26T15:01:50.090Z,2.35
2022-08-26T15:04:21.392Z,2.22
2022-08-26T15:06:49.013Z,2.22
2022-08-26T15:09:16.689Z,2.13
2022-08-26T15:11:44.794Z,3.67
2022-08-26T15:14:19.052Z,3.10
2022-08-26T15:16:48.413Z,3.63
2022-08-26T15:22:54.091Z,3.47
2022-08-26T15:25:48.782Z,3.70
2022-08-26T15:30:14.367Z,3.28
2022-08-26T15:32:51.836Z,3.00
2022-08-26T15:35:49.494Z,2.90
2022-08-26T15:38:20.389Z,3.35
2022-08-26T15:40:48.197Z,3.58
2022-08-26T15:43:28.766Z,3.30
2022-08-26T15:45:58.373Z,2.83
2022-08-26T15:48:27.741Z,3.65
2022-08-26T15:53:26.017Z,3.42
2022-08-26T15:55:55.002Z,2.80
2022-08-26T15:58:24.919Z,3.10
2022-08-26T16:00:55.448Z,2.60
2022-08-26T16:03:23.303Z,2.85
2022-08-26T16:05:52.299Z,3.03
2022-08-26T16:08:20.935Z,3.33
2022-08-26T16:10:50.597Z,17.50
2022-08-26T16:13:20.220Z,5.63
2022-08-26T16:15:47.984Z,3.58
2022-08-26T16:18:16.764Z,3.40
2022-08-26T16:20:56.020Z,2.72
2022-08-26T16:24:30.497Z,2.78
2022-08-26T16:27:00.212Z,2.70
2022-08-26T16:29:27.971Z,3.15
2022-08-26T16:31:55.316Z,2.83
2022-08-26T16:34:22.761Z,2.90
2022-08-26T16:36:50.161Z,3.13
2022-08-26T16:39:21.193Z,2.65
2022-08-26T16:41:48.638Z,3.20
2022-08-26T16:44:17.516Z,3.85
2022-08-26T16:46:46.124Z,2.70
2022-08-26T16:49:14.588Z,3.40
2022-08-26T16:51:42.357Z,3.53
2022-08-26T16:54:10.142Z,3.13
2022-08-26T16:56:38.186Z,3.20
2022-08-26T16:59:09.278Z,3.15
2022-08-26T17:01:38.799Z,3.55
2022-08-26T17:04:06.502Z,3.75
2022-08-26T17:06:35.163Z,4.07
2022-08-26T17:09:08.528Z,3.17
2022-08-26T17:11:36.015Z,3.20
2022-08-26T17:14:10.506Z,2.88
2022-08-26T17:16:39.903Z,2.80
2022-08-26T17:19:08.316Z,3.40
2022-08-26T17:21:38.370Z,3.70
2022-08-26T17:24:07.029Z,3.75
2022-08-26T17:26:34.864Z,3.70
2022-08-26T17:29:05.201Z,3.83
2022-08-26T17:31:32.685Z,3.55
2022-08-26T17:34:01.463Z,3.40
2022-08-26T17:36:29.332Z,2.67
2022-08-26T17:38:57.818Z,2.97
2022-08-26T17:41:26.742Z,2.45
2022-08-26T17:43:54.475Z,2.50
2022-08-26T17:46:24.148Z,3.05
2022-08-26T17:48:59.747Z,3.05
2022-08-26T17:54:17.355Z,2.93
2022-08-26T17:56:45.783Z,2.72
2022-08-26T17:59:13.276Z,2.67
2022-08-26T18:01:42.125Z,2.47
2022-08-26T18:04:10.303Z,2.38
2022-08-26T18:06:40.926Z,2.85
2022-08-26T18:09:08.668Z,2.60
2022-08-26T18:11:36.559Z,2.40
2022-08-26T18:14:04.559Z,2.30
2022-08-26T18:16:38.254Z,2.22
2022-08-26T18:19:06.494Z,2.40
2022-08-26T18:21:36.297Z,2.25
2022-08-26T18:24:13.324Z,2.30
2022-08-26T18:26:48.130Z,2.13
2022-08-26T18:29:18.261Z,2.38
2022-08-26T18:35:54.836Z,2.30
2022-08-26T18:38:22.516Z,2.40
2022-08-26T18:40:52.069Z,2.95
2022-08-26T18:43:21.064Z,2.38
2022-08-26T18:45:48.755Z,2.88
2022-08-26T18:48:16.492Z,2.72
2022-08-26T18:50:47.347Z,2.95
2022-08-26T18:53:15.866Z,3.17
2022-08-26T18:55:43.359Z,2.67
2022-08-26T18:58:12.390Z,2.65
2022-08-26T19:00:39.985Z,2.88
2022-08-26T19:03:18.733Z,2.63
2022-08-26T19:05:53.296Z,2.28
2022-08-26T19:08:23.137Z,2.58
2022-08-26T19:10:52.698Z,2.30
2022-08-26T19:13:22.147Z,2.95
2022-08-26T19:15:54.708Z,2.30
2022-08-26T19:18:25.667Z,2.22
2022-08-26T19:20:53.205Z,3.47
2022-08-26T19:23:31.586Z,2.35
2022-08-26T19:26:10.724Z,3.08
2022-08-26T19:28:43.091Z,2.50
2022-08-26T19:31:13.417Z,3.55
2022-08-26T19:33:43.185Z,3.10
2022-08-26T19:36:15.131Z,3.13
2022-08-26T19:38:43.077Z,2.58
2022-08-26T19:41:12.182Z,2.58
2022-08-26T19:43:41.114Z,2.70
2022-08-26T19:46:13.666Z,2.70
2022-08-26T19:48:44.102Z,2.60
2022-08-26T19:51:13.474Z,2.28
2022-08-26T19:53:42.036Z,2.40
2022-08-26T19:56:09.700Z,2.33
2022-08-26T19:58:37.397Z,2.65
2022-08-26T20:01:07.675Z,2.42
2022-08-26T20:03:36.536Z,2.15
2022-08-26T20:06:05.460Z,2.58
2022-08-26T20:08:32.873Z,2.38
2022-08-26T20:11:01.415Z,2.50
2022-08-26T20:13:29.861Z,2.80
2022-08-26T20:15:58.931Z,2.92
2022-08-26T20:18:46.661Z,2.40
2022-08-26T20:21:26.603Z,3.20
2022-08-26T20:23:55.897Z,2.67
2022-08-26T20:26:23.536Z,2.45
2022-08-26T20:28:51.503Z,3.72
2022-08-26T20:31:19.478Z,2.60
2022-08-26T20:33:49.696Z,2.40
2022-08-26T20:36:17.461Z,2.30
2022-08-26T20:38:46.207Z,2.60
2022-08-26T20:41:13.913Z,2.33
2022-08-26T20:43:43.053Z,2.45
2022-08-26T20:46:17.386Z,2.55
2022-08-26T20:48:49.095Z,2.70
2022-08-26T20:51:18.670Z,2.90
2022-08-26T20:53:47.120Z,2.50
2022-08-26T20:56:18.068Z,2.97
2022-08-26T20:58:46.530Z,2.30
2022-08-26T21:01:18.873Z,2.10
2022-08-26T21:03:48.555Z,2.58
2022-08-26T21:17:47.550Z,2.20
2022-08-26T21:20:16.720Z,2.40
2022-08-26T21:22:44.077Z,3.08
2022-08-26T21:25:11.867Z,2.65
2022-08-26T21:27:39.548Z,3.22
2022-08-26T21:30:08.245Z,2.60
2022-08-26T21:32:35.647Z,3.00
2022-08-26T21:35:05.086Z,3.22
2022-08-26T21:37:33.980Z,2.60
2022-08-26T21:40:04.458Z,3.25
2022-08-26T21:42:33.667Z,2.70
2022-08-26T21:45:02.288Z,3.50
2022-08-26T21:47:33.146Z,3.05
2022-08-26T21:52:31.611Z,3.35
2022-08-26T21:57:32.521Z,2.92
2022-08-26T22:00:00.620Z,2.83
2022-08-26T22:02:33.359Z,2.50
2022-08-26T22:05:00.908Z,4.03
2022-08-26T22:21:40.785Z,3.03
2022-08-26T22:24:08.859Z,3.80
2022-08-26T22:26:36.187Z,3.03
2022-08-26T22:29:05.097Z,3.72
2022-08-26T22:31:38.749Z,3.20
2022-08-26T22:38:14.069Z,3.97
2022-08-26T22:40:44.973Z,3.40
2022-08-26T22:43:13.054Z,4.43
2022-08-26T22:45:41.853Z,3.50
2022-08-26T22:48:15.583Z,3.77
2022-08-26T22:50:45.085Z,3.65
2022-08-26T22:53:49.409Z,3.80
2022-08-26T22:56:19.318Z,3.80
2022-08-26T22:58:48.075Z,3.35
2022-08-26T23:01:17.089Z,3.20
2022-08-26T23:03:45.429Z,3.75
2022-08-26T23:06:13.512Z,4.10
2022-08-26T23:08:45.383Z,3.47
2022-08-26T23:11:14.043Z,2.88
2022-08-26T23:13:41.646Z,3.55
2022-08-26T23:16:11.260Z,4.43
2022-08-26T23:18:39.646Z,4.32
2022-08-26T23:21:08.261Z,4.05
2022-08-26T23:23:36.222Z,3.77
2022-08-26T23:26:08.020Z,3.35
2022-08-26T23:28:38.410Z,4.05
2022-08-26T23:31:07.296Z,3.75
2022-08-26T23:33:55.432Z,3.58
2022-08-26T23:36:23.237Z,3.53
2022-08-26T23:38:52.659Z,3.58
2022-08-26T23:43:50.886Z,3.78
2022-08-26T23:46:18.514Z,3.85
2022-08-26T23:48:46.877Z,7.97
2022-08-26T23:51:33.327Z,4.60
2022-08-26T23:54:02.450Z,4.55
2022-08-26T23:56:31.381Z,4.90
2022-08-26T23:58:59.671Z,3.42
